Tiempo atmosférico en la estación meteorológica de Algarrobo, Málaga (80 m.)



Fecha
DESCASC
Temp. máxima en grados centígrados (hora)
DESCASC
Temp. mínima en grados centígrados (hora)
DESCASC
Temp. media en grados centígrados
DESCASC
Racha de viento máxima en m/sg (hora)
DESCASC
Velocidad máxima media en intervalos de 10 minutos(hora)
DESCASC
Precipitaciones diarias en mm
DESCASC
Precipitaciones de 00:00 a 06:00 en mm
DESCASC
Precipitaciones de 06:00 a 12:00 en mm
DESCASC
Precipitaciones de 12:00 a 18:00 en mm
DESCASC
Precipitaciones de 18:00 a 24:00 en mm
DESCASC
08-12-2019 -- (--) -- (--) -- -- (--) -- (--) -- 0 0 -- --
07-12-2019 18.7 (12:00) 11.1 (23:30) 14.9 4.44 (14:30) 2.78 (15:40) 0 0 0 0 0
06-12-2019 19.6 (14:30) 10 (02:10) 14.8 5.28 (17:10) 3.33 (12:40) 0 0 0 0 0
05-12-2019 17.3 (11:40) 8.6 (00:00) 12.9 8.61 (16:20) 4.17 (12:00) 0 0 0 0 0
04-12-2019 19.2 (14:40) 10.2 (00:00) 14.7 10 (14:20) 5.83 (14:10) 0 0 0 0 0
03-12-2019 17.5 (14:50) 10.5 (00:00) 14 6.39 (17:10) 3.61 (17:20) 1.4 1.2 0.2 0 0
02-12-2019 17 (13:10) 11.4 (00:00) 14.2 8.89 (14:20) 4.72 (12:50) 3 0.4 2.4 0 0.2
01-12-2019 19.5 (12:10) 11.5 (00:00) 15.5 10.28 (13:50) 6.11 (13:50) 1.4 0 0 0 1.4
30-11-2019 19.4 (14:10) 9.6 (00:00) 14.5 4.17 (21:50) 2.78 (22:00) 0 0 0 0 0
29-11-2019 19.9 (14:20) 10 (00:00) 14.9 3.89 (15:10) 2.78 (15:20) 0 0 0 0 0
28-11-2019 20.8 (14:20) 10.2 (00:00) 15.5 6.39 (00:50) 2.78 (00:50) 0 0 0 0 0
27-11-2019 22.6 (14:30) 13.2 (00:00) 17.9 13.06 (14:40) 8.06 (15:50) 0 0 0 0 0
26-11-2019 23.1 (12:50) 12.3 (00:00) 17.7 8.33 (01:00) 5 (01:00) 0 0 0 0 0
25-11-2019 -- (--) -- (--) -- 15.83 (07:10) 8.06 (10:20) 0 0 0 0 0
24-11-2019 -- (--) -- (--) -- -- (--) -- (--) -- -- -- 0 0
23-11-2019 -- (--) -- (--) -- -- (--) -- (--) -- -- -- 0 --
22-11-2019 -- (--) -- (--) -- -- (--) -- (--) -- -- -- -- --
21-11-2019 -- (--) -- (--) -- -- (--) -- (--) -- -- -- -- --
20-11-2019 17.2 (11:00) 8.5 (00:00) 12.9 3.61 (12:30) 2.78 (12:30) 1.2 0 0 1.2 0
19-11-2019 17.6 (13:20) 9.1 (00:00) 13.4 4.44 (11:30) 2.78 (06:30) 0 0 0 0 0
18-11-2019 20.4 (16:00) 10.5 (00:00) 15.4 11.11 (10:50) 6.67 (10:50) 0 0 0 0 0
17-11-2019 18.7 (13:40) 6.8 (00:00) 12.8 10.28 (13:00) 7.5 (13:00) 0 0 0 0 0
16-11-2019 18.7 (15:00) 5.8 (00:00) 12.3 11.94 (16:10) 7.5 (16:10) 0 0 0 0 0
15-11-2019 -- (--) -- (--) -- -- (--) -- (--) -- -- -- 0 0
14-11-2019 18.3 (11:10) 12.1 (00:00) 15.2 17.78 (18:00) 10.28 (20:40) 0 0 0 0 0
13-11-2019 22.3 (15:40) 14.4 (00:00) 18.3 14.72 (10:30) 8.89 (10:30) 0 0 0 0 0
12-11-2019 -- (--) -- (--) -- -- (--) -- (--) -- -- -- 0 0
11-11-2019 18.7 (13:50) 11.8 (06:30) 15.3 13.61 (14:50) 8.89 (14:50) 0 0 0 0 0

Gráficas

Temp. máximas Temp. mínimas Temp. medias Precipitaciones Rachas de viento máximas Velocidades máximas media en intervalos de 10 minutos

Datos horarios

Fecha y hora oficial Temperatura (ºC) Velocidad del viento (km/h) Dirección del viento Racha (km/h) Dirección de racha Precipitación (mm) Presión (hPa) Tendencia (hPa) Humedad (%)
2019-12-10 23:00:00 9.9 4 Nordeste 6 Nordeste 0 -- -- 87
2019-12-10 22:00:00 9.9 0 Calma 6 Nordeste 0 -- -- 83
2019-12-10 21:00:00 10.8 3 Nordeste 8 Norte 0 -- -- 82
2019-12-10 20:00:00 11.5 5 Norte 9 Norte 0 -- -- 84
2019-12-10 19:00:00 13.2 0 Calma 5 Norte 0 -- -- 84
2019-12-10 18:00:00 16.5 0 Calma 7 Sudoeste 0 -- -- 73
2019-12-10 17:00:00 17.6 5 Sudoeste 11 Sudoeste 0 -- -- 73
2019-12-10 16:00:00 18.4 6 Sudoeste 12 Sudoeste 0 -- -- 69
2019-12-10 15:00:00 18.7 8 Sudoeste 12 Sur 0 -- -- 70
2019-12-10 14:00:00 18.9 6 Sudoeste 12 Sur 0 -- -- 58
2019-12-10 13:00:00 18.9 5 Sudoeste 11 Sur 0 -- -- 54
2019-12-10 12:00:00 18.7 7 Sur 10 Sur 0 -- -- 62
2019-12-10 11:00:00 17.6 3 Sudoeste 5 Sur 0 -- -- 60
2019-12-10 10:00:00 13.3 4 Norte 8 Norte 0 -- -- 67
2019-12-10 09:00:00 10 5 Norte 10 Nordeste 0 -- -- 72
2019-12-10 08:00:00 9.7 3 Nordeste 9 Norte 0 -- -- 78
2019-12-10 07:00:00 9.1 5 Norte 8 Norte 0 -- -- 79
2019-12-10 06:00:00 10.9 2 Sur 15 Norte 0 -- -- 69
2019-12-10 05:00:00 10.2 0 Calma 9 Nordeste 0 -- -- 80
2019-12-10 04:00:00 11.4 3 Nordeste 7 Norte 0 -- -- 83
2019-12-10 03:00:00 13 3 Nordeste 8 Norte 0 -- -- 82
2019-12-10 02:00:00 13.1 6 Nordeste 9 Norte 0 -- -- 76
2019-12-10 01:00:00 12.5 2 Nordeste 8 Norte 0 -- -- 83
2019-12-10 00:00:00 12.7 3 Nordeste 5 Este 0 -- -- 83
2019-12-09 23:00:00 12.6 4 Nordeste 7 Norte 0 -- -- 83
2019-12-09 22:00:00 12.9 0 Calma 4 Norte 0 -- -- 87
2019-12-09 21:00:00 12.6 2 Nordeste 8 Norte 0 -- -- 87
2019-12-09 20:00:00 13.2 3 Norte 6 Norte 0 -- -- 87
2019-12-09 19:00:00 14.9 0 Calma 6 Sur 0 -- -- 82
2019-12-09 18:00:00 18.3 3 Sudoeste 8 Sudoeste 0 -- -- 74
2019-12-09 17:00:00 20.1 7 Sur 12 Sur 0 -- -- 61
2019-12-09 16:00:00 21.1 7 Sur 14 Sur 0 -- -- 53
2019-12-09 15:00:00 20.5 6 Sudeste 11 Sudeste 0 -- -- 53
2019-12-09 14:00:00 19.6 6 Sudeste 18 Sudoeste 0 -- -- 61
2019-12-09 13:00:00 20.6 8 Sudeste 16 Sudeste 0 -- -- 57
2019-12-09 12:00:00 19.5 8 Sudeste 14 Sudeste 0 -- -- 65
2019-12-09 11:00:00 19.7 5 Noroeste 12 Noroeste 0 -- -- 60
2019-12-09 10:00:00 16.9 3 Este 8 Norte 0 -- -- 72
2019-12-09 09:00:00 13.5 6 Norte 25 Norte 0 -- -- 77
2019-12-09 08:00:00 15 12 Norte 23 Norte 0 -- -- 71
2019-12-09 07:00:00 15 7 Nordeste 17 Norte 0 -- -- 70
2019-12-09 06:00:00 15.5 10 Norte 19 Noroeste 0 -- -- 68
2019-12-09 05:00:00 14.5 4 Norte 19 Norte 0 -- -- 72
2019-12-09 04:00:00 14.2 3 Nordeste 14 Norte 0 -- -- 71
2019-12-09 03:00:00 15.5 7 Norte 28 Noroeste 0 -- -- 65
2019-12-09 02:00:00 14.7 4 Norte 11 Norte 0 -- -- 66
2019-12-09 01:00:00 16.7 9 Norte 23 Noroeste 0 -- -- 58
2019-12-09 00:00:00 15.3 3 Este 13 Nordeste 0 -- -- 62
2019-12-08 23:00:00 14.7 4 Norte 12 Norte 0 -- -- 63
2019-12-08 22:00:00 15.5 3 Norte 25 Noroeste 0 -- -- 60
2019-12-08 21:00:00 16.9 9 Noroeste 27 Noroeste 0 -- -- 50
2019-12-08 20:00:00 14.4 5 Sudeste 11 Sudeste 0 -- -- 77
2019-12-08 19:00:00 14.9 2 Nordeste 7 Nordeste 0 -- -- 83
2019-12-08 18:00:00 16.6 2 Nordeste 6 Sur 0 -- -- 76
2019-12-08 17:00:00 18.1 4 Sur 9 Sur 0 -- -- 70
2019-12-08 16:00:00 18.2 5 Sur 12 Sur 0 -- -- 72
2019-12-08 15:00:00 18.4 7 Sudoeste 12 Sudoeste 0 -- -- 74
2019-12-08 14:00:00 17.8 6 Sudoeste 13 Sur 0 -- -- 66
2019-12-08 13:00:00 17.5 7 Sur 11 Sur 0 -- -- 66
2019-12-08 12:00:00 16.6 6 Sudoeste 10 Sudoeste 0 -- -- 68
2019-12-08 11:00:00 15.7 4 Sur 8 Sur 0 -- -- 70
2019-12-08 10:00:00 12.1 0 Calma 6 Norte 0 -- -- 95
2019-12-08 09:00:00 9.5 4 Norte 8 Norte 0 -- -- 93
2019-12-08 08:00:00 9.4 4 Norte 8 Norte 0 -- -- 94
2019-12-08 07:00:00 9.4 4 Norte 11 Norte 0 -- -- 91
2019-12-08 06:00:00 9.7 5 Norte 12 Norte 0 -- -- 89
2019-12-08 05:00:00 10.2 9 Norte 12 Norte 0 -- -- 90
2019-12-08 04:00:00 10.3 6 Norte 10 Norte 0 -- -- 91
2019-12-08 03:00:00 10.5 6 Norte 9 Norte 0 -- -- 91
2019-12-08 02:00:00 10.8 5 Norte 9 Nordeste 0 -- -- 89
2019-12-08 01:00:00 11.5 6 Norte 8 Norte 0 -- -- 88
2019-12-08 00:00:00 11.1 5 Norte 8 Nordeste 0 -- -- 90
2019-12-07 23:00:00 11.2 6 Norte 9 Norte 0 -- -- 89
2019-12-07 22:00:00 11.4 4 Norte 6 Norte 0 -- -- 88
2019-12-07 21:00:00 11.8 4 Norte 5 Norte 0 -- -- 87
2019-12-07 20:00:00 12.6 3 Nordeste 5 Nordeste 0 -- -- 85
2019-12-07 19:00:00 14 3 Nordeste 4 Nordeste 0 -- -- 83
2019-12-07 18:00:00 16.3 0 Calma 5 Sudoeste 0 -- -- 75
2019-12-07 17:00:00 17.2 5 Sur 14 Sudoeste 0 -- -- 73
2019-12-07 16:00:00 17.6 10 Sudoeste 14 Sudoeste 0 -- -- 75
2019-12-07 15:00:00 18 9 Sudoeste 16 Sudoeste 0 -- -- 75
2019-12-07 14:00:00 18 8 Oeste 15 Sur 0 -- -- 71
2019-12-07 13:00:00 18.6 5 Sudoeste 14 Sur 0 -- -- 64
2019-12-07 12:00:00 18.7 9 Sur 14 Sur 0 -- -- 60
2019-12-07 11:00:00 16.8 5 Sudoeste 9 Sur 0 -- -- 70
2019-12-07 10:00:00 13.1 2 Norte 6 Norte 0 -- -- 82
2019-12-07 09:00:00 11.8 3 Norte 4 Norte 0 -- -- 85
2019-12-07 08:00:00 12.1 2 Norte 6 Norte 0 -- -- 80
2019-12-07 07:00:00 13.6 3 Norte 9 Norte 0 -- -- 73
2019-12-07 06:00:00 14.2 6 Noroeste 11 Norte 0 -- -- 72
2019-12-07 05:00:00 14.3 6 Norte 12 Norte 0 -- -- 74
2019-12-07 04:00:00 14.4 9 Norte 15 Norte 0 -- -- 75
2019-12-07 03:00:00 13.8 8 Norte 12 Norte 0 -- -- 81
2019-12-07 02:00:00 13.7 4 Norte 8 Norte 0 -- -- 83
2019-12-07 01:00:00 13.2 3 Norte 6 Norte 0 -- -- 86
2019-12-07 00:00:00 13.4 0 Calma 5 Norte 0 -- -- 85
2019-12-06 23:00:00 13.9 5 Norte 12 Noroeste 0 -- -- 84
2019-12-06 22:00:00 13.9 5 Norte 9 Norte 0 -- -- 84
2019-12-06 21:00:00 13.4 5 Norte 10 Nordeste 0 -- -- 87
2019-12-06 20:00:00 13.2 2 Nordeste 7 Norte 0 -- -- 87
2019-12-06 19:00:00 14.7 2 Norte 11 Este 0 -- -- 81
2019-12-06 18:00:00 16.7 5 Este 19 Sudeste 0 -- -- 74
2019-12-06 17:00:00 17.8 7 Sudeste 18 Sudeste 0 -- -- 72
2019-12-06 16:00:00 18.7 8 Sur 12 Sur 0 -- -- 61
2019-12-06 15:00:00 19.2 6 Sudoeste 12 Sur 0 -- -- 54
2019-12-06 14:00:00 19.1 6 Sur 15 Sudoeste 0 -- -- 55
2019-12-06 13:00:00 18.1 11 Sudoeste 18 Oeste 0 -- -- 59
2019-12-06 12:00:00 18.5 5 Sudoeste 10 Sudoeste 0 -- -- 58
2019-12-06 11:00:00 17.4 3 Norte 14 Noroeste 0 -- -- 57
2019-12-06 10:00:00 14.2 7 Norte 17 Norte 0 -- -- 69
2019-12-06 09:00:00 11.2 10 Norte 17 Norte 0 -- -- 78
2019-12-06 08:00:00 10.9 9 Norte 13 Norte 0 -- -- 80
2019-12-06 07:00:00 10.3 7 Norte 12 Norte 0 -- -- 83
2019-12-06 06:00:00 10.5 7 Norte 12 Norte 0 -- -- 83
2019-12-06 05:00:00 10.6 7 Norte 14 Norte 0 -- -- 82
2019-12-06 04:00:00 10.9 6 Norte 13 Norte 0 -- -- 83
2019-12-06 03:00:00 10.7 7 Nordeste 15 Norte 0 -- -- 87
2019-12-06 02:00:00 10.2 3 Norte 8 Norte 0 -- -- 89
2019-12-06 01:00:00 10.9 4 Nordeste 7 Norte 0 -- -- 89
2019-12-06 00:00:00 11.6 0 Calma 8 Norte 0 -- -- 85
2019-12-05 23:00:00 12.9 6 Norte 15 Norte 0 -- -- 84
2019-12-05 22:00:00 12.1 5 Norte 10 Norte 0 -- -- 89
2019-12-05 21:00:00 12.5 4 Norte 6 Nordeste 0 -- -- 85
2019-12-05 20:00:00 14.4 5 Norte 8 Norte 0 -- -- 81
2019-12-05 19:00:00 15.1 4 Este 15 Nordeste 0 -- -- 80
2019-12-05 18:00:00 15.2 7 Sudeste 22 Sudeste 0 -- -- 79
2019-12-05 17:00:00 15.7 12 Sudeste 31 Sudeste 0 -- -- 75
2019-12-05 16:00:00 16.2 10 Sudeste 27 Sudeste 0 -- -- 76
2019-12-05 15:00:00 16.5 10 Sudeste 26 Sudeste 0 -- -- 71
2019-12-05 14:00:00 15.8 12 Sudeste 30 Este 0 -- -- 74
2019-12-05 13:00:00 15.9 10 Sudeste 27 Sudeste 0 -- -- 73
2019-12-05 12:00:00 16.2 15 Sudeste 30 Sudeste 0 -- -- 68
2019-12-05 11:00:00 16.8 7 Sur 14 Sudeste 0 -- -- 60
2019-12-05 10:00:00 13.5 5 Norte 8 Norte 0 -- -- 69
2019-12-05 09:00:00 11.3 4 Norte 11 Norte 0 -- -- 76
2019-12-05 08:00:00 10.9 3 Nordeste 10 Norte 0 -- -- 81
2019-12-05 07:00:00 9.9 3 Nordeste 7 Norte 0 -- -- 83
2019-12-05 06:00:00 8.7 4 Norte 8 Norte 0 -- -- 80
2019-12-05 05:00:00 10 3 Norte 6 Nordeste 0 -- -- 78
2019-12-05 04:00:00 10.7 0 Calma 6 Norte 0 -- -- 77
2019-12-05 03:00:00 10.6 3 Norte 13 Norte 0 -- -- 74
2019-12-05 02:00:00 10.2 6 Norte 12 Norte 0 -- -- 74
2019-12-05 01:00:00 9.2 0 Calma 7 Norte 0 -- -- 78
2019-12-05 00:00:00 10.3 5 Nordeste 11 Norte 0 -- -- 73
2019-12-04 23:00:00 11.4 8 Norte 13 Norte 0 -- -- 67
2019-12-04 22:00:00 10.6 2 Este 10 Norte 0 -- -- 72
2019-12-04 21:00:00 11.6 5 Norte 10 Nordeste 0 -- -- 69
2019-12-04 20:00:00 12.1 4 Norte 9 Nordeste 0 -- -- 68
2019-12-04 19:00:00 14.6 5 Noroeste 18 Noroeste 0 -- -- 59
2019-12-04 18:00:00 15.8 14 Noroeste 24 Noroeste 0 -- -- 53
2019-12-04 17:00:00 17.5 9 Oeste 31 Sudoeste 0 -- -- 59
2019-12-04 16:00:00 18.7 14 Noroeste 31 Noroeste 0 -- -- 49
2019-12-04 15:00:00 19.1 17 Noroeste 36 Oeste 0 -- -- 48
2019-12-04 14:00:00 18.7 18 Noroeste 32 Noroeste 0 -- -- 51
2019-12-04 13:00:00 19 18 Noroeste 31 Noroeste 0 -- -- 52
2019-12-04 12:00:00 18.7 14 Oeste 30 Noroeste 0 -- -- 53
2019-12-04 11:00:00 17.6 13 Oeste 24 Noroeste 0 -- -- 56
2019-12-04 10:00:00 16 15 Noroeste 27 Noroeste 0 -- -- 61
2019-12-04 09:00:00 12.2 6 Norte 21 Oeste 0 -- -- 76
2019-12-04 08:00:00 12.1 0 Calma 19 Noroeste 0 -- -- 74
2019-12-04 07:00:00 12.6 12 Noroeste 22 Noroeste 0 -- -- 71
2019-12-04 06:00:00 11.8 12 Noroeste 22 Noroeste 0 -- -- 77
2019-12-04 05:00:00 11.7 0 Calma 20 Oeste 0 -- -- 78
2019-12-04 04:00:00 12.9 13 Norte 25 Norte 0 -- -- 72
2019-12-04 03:00:00 11.5 5 Norte 11 Noroeste 0 -- -- 83
2019-12-04 02:00:00 11.3 6 Norte 10 Nordeste 0 -- -- 85
2019-12-04 01:00:00 11.2 5 Nordeste 12 Norte 0 -- -- 86
2019-12-04 00:00:00 10.6 4 Norte 8 Norte 0 -- -- 91
2019-12-03 23:00:00 10.7 4 Norte 8 Norte 0 -- -- 91
2019-12-03 22:00:00 11.2 4 Norte 7 Nordeste 0 -- -- 89
2019-12-03 21:00:00 12.8 3 Norte 15 Este 0 -- -- 86
2019-12-03 20:00:00 13.7 6 Este 16 Este 0 -- -- 87
2019-12-03 19:00:00 13.9 8 Este 15 Este 0 -- -- 86
2019-12-03 18:00:00 14.8 6 Sudoeste 23 Sudoeste 0 -- -- 82
2019-12-03 17:00:00 16.2 8 Sudoeste 15 Sudoeste 0 -- -- 75
2019-12-03 16:00:00 17 4 Sudoeste 17 Oeste 0 -- -- 69
2019-12-03 15:00:00 17.3 10 Sudoeste 22 Sudoeste 0 -- -- 64
2019-12-03 14:00:00 16.6 10 Sudoeste 18 Sudoeste 0 -- -- 72
2019-12-03 13:00:00 16.1 4 Oeste 13 Oeste 0 -- -- 72
2019-12-03 12:00:00 14.5 9 Noroeste 14 Noroeste 0 -- -- 86
2019-12-03 11:00:00 14.3 3 Sudoeste 14 Sudeste 0.2 -- -- 81
2019-12-03 10:00:00 14.3 6 Sudeste 14 Sudeste 0 -- -- 80
2019-12-03 09:00:00 12.4 3 Norte 10 Noroeste 0 -- -- 87
2019-12-03 08:00:00 12.3 6 Norte 11 Norte 0 -- -- 89
2019-12-03 07:00:00 11.8 4 Norte 8 Nordeste 0 -- -- 93
2019-12-03 06:00:00 12.1 2 Nordeste 12 Norte 0 -- -- 93
2019-12-03 05:00:00 12.1 3 Norte 10 Norte 0 -- -- 93
2019-12-03 04:00:00 12.6 3 Oeste 6 Noroeste 0.4 -- -- 92
2019-12-03 03:00:00 13 3 Norte 8 Noroeste 0.8 -- -- 90
2019-12-03 02:00:00 13.4 5 Noroeste 11 Noroeste 0 -- -- 87
2019-12-03 01:00:00 13.9 4 Sudeste 13 Sur 0 -- -- 84
2019-12-03 00:00:00 13.2 3 Nordeste 9 Nordeste 0.2 -- -- 86
2019-12-02 23:00:00 13.7 4 Nordeste 9 Sudeste 0 -- -- 84
2019-12-02 22:00:00 14 4 Sudeste 12 Norte 0 -- -- 83
2019-12-02 21:00:00 14.1 4 Este 19 Sudeste 0 -- -- 84
2019-12-02 20:00:00 14.5 5 Este 23 Este 0 -- -- 84
2019-12-02 19:00:00 14.4 11 Sudeste 30 Sudeste 0 -- -- 86
2019-12-02 18:00:00 14.5 11 Sudeste 27 Sudeste 0 -- -- 84
2019-12-02 17:00:00 15.3 10 Sudeste 30 Sudeste 0 -- -- 83
2019-12-02 16:00:00 16 13 Sudeste 27 Sur 0 -- -- 78
2019-12-02 15:00:00 15.5 9 Sudeste 32 Sur 0 -- -- 84
2019-12-02 14:00:00 16.9 14 Sudeste 30 Sudeste 0 -- -- 73
2019-12-02 13:00:00 16.9 12 Sudeste 30 Sudeste 0 -- -- 73
2019-12-02 12:00:00 15.8 8 Sudeste 22 Sur 0 -- -- 76
2019-12-02 11:00:00 14.5 8 Noroeste 18 Noroeste 0 -- -- 83
2019-12-02 10:00:00 13.4 6 Noroeste 16 Noroeste 0 -- -- 90
2019-12-02 09:00:00 12.1 3 Norte 11 Noroeste 0 -- -- 91
2019-12-02 08:00:00 12.1 4 Sudoeste 17 Sudoeste 0.4 -- -- 89
2019-12-02 07:00:00 12.1 4 Nordeste 12 Este 2 -- -- 90
2019-12-02 06:00:00 12.2 5 Norte 9 Norte 0 -- -- 94
2019-12-02 05:00:00 12.2 3 Este 13 Este 0.2 -- -- 94
2019-12-02 04:00:00 12.7 3 Nordeste 11 Este 0.2 -- -- 94
2019-12-02 03:00:00 12.4 3 Este 9 Este 0 -- -- 95
2019-12-02 02:00:00 11.6 3 Este 5 Este 0 -- -- 95
2019-12-02 01:00:00 11.8 2 Nordeste 5 Nordeste 0 -- -- 94
2019-12-02 00:00:00 12 2 Nordeste 5 Nordeste 0 -- -- 93
2019-12-01 23:00:00 13.1 0 Calma 4 Norte 0 -- -- 93
2019-12-01 22:00:00 13.8 2 Sur 8 Sudeste 0 -- -- 92
2019-12-01 21:00:00 13.9 4 Sudeste 10 Oeste 0.4 -- -- 90
2019-12-01 20:00:00 14.5 6 Oeste 17 Sudoeste 1 -- -- 85
2019-12-01 19:00:00 15.1 9 Oeste 19 Sudoeste 0 -- -- 80
2019-12-01 18:00:00 15.6 3 Noroeste 20 Oeste 0 -- -- 74
2019-12-01 17:00:00 17.1 7 Sudoeste 23 Oeste 0 -- -- 71
2019-12-01 16:00:00 17.2 13 Sudoeste 29 Sudoeste 0 -- -- 69
2019-12-01 15:00:00 16.7 18 Sudoeste 33 Sudoeste 0 -- -- 75
2019-12-01 14:00:00 16.6 18 Sudoeste 37 Oeste 0 -- -- 79
2019-12-01 13:00:00 16.7 19 Sudoeste 33 Sudoeste 0 -- -- 78
2019-12-01 12:00:00 19.4 16 Noroeste 33 Noroeste 0 -- -- 42
2019-12-01 11:00:00 18.5 15 Noroeste 25 Noroeste 0 -- -- 46
2019-12-01 10:00:00 16.6 6 Oeste 17 Noroeste 0 -- -- 62
2019-12-01 09:00:00 14.4 8 Noroeste 16 Noroeste 0 -- -- 66
2019-12-01 08:00:00 14.9 9 Noroeste 15 Noroeste 0 -- -- 70
2019-12-01 07:00:00 14.5 9 Noroeste 17 Noroeste 0 -- -- 74
2019-12-01 06:00:00 15.8 13 Noroeste 23 Noroeste 0 -- -- 71
2019-12-01 05:00:00 14.9 4 Noroeste 15 Oeste 0 -- -- 77
2019-12-01 04:00:00 13.2 7 Noroeste 14 Noroeste 0 -- -- 81
2019-12-01 03:00:00 12.3 6 Norte 14 Oeste 0 -- -- 75
2019-12-01 02:00:00 11.5 5 Norte 11 Norte 0 -- -- 82
2019-12-01 01:00:00 11.8 5 Norte 10 Norte 0 -- -- 81
2019-12-01 00:00:00 12.6 3 Este 10 Noroeste 0 -- -- 80
2019-11-30 23:00:00 12.7 6 Noroeste 13 Noroeste 0 -- -- 82
2019-11-30 22:00:00 13.1 10 Norte 15 Norte 0 -- -- 84
2019-11-30 21:00:00 12.6 0 Calma 11 Nordeste 0 -- -- 81
2019-11-30 20:00:00 13 6 Norte 10 Norte 0 -- -- 80
2019-11-30 19:00:00 13.2 3 Norte 9 Norte 0 -- -- 79
2019-11-30 18:00:00 16.2 2 Noroeste 9 Oeste 0 -- -- 72
2019-11-30 17:00:00 18.4 4 Sudoeste 8 Sur 0 -- -- 62
2019-11-30 16:00:00 18.8 4 Sudoeste 10 Sudoeste 0 -- -- 61
2019-11-30 15:00:00 18.4 6 Sudoeste 12 Sur 0 -- -- 65
2019-11-30 14:00:00 19.3 6 Sur 11 Sur 0 -- -- 60
2019-11-30 13:00:00 18.6 8 Sur 13 Sur 0 -- -- 62
2019-11-30 12:00:00 18.6 6 Sur 14 Sur 0 -- -- 61
2019-11-30 11:00:00 17.2 6 Sudoeste 9 Sudoeste 0 -- -- 65
2019-11-30 10:00:00 14 0 Calma 3 Norte 0 -- -- 86
2019-11-30 09:00:00 9.9 2 Norte 4 Nordeste 0 -- -- 92
2019-11-30 08:00:00 9.9 0 Calma 4 Nordeste 0 -- -- 91
2019-11-30 07:00:00 9.8 4 Norte 6 Nordeste 0 -- -- 90
2019-11-30 06:00:00 10.2 4 Norte 6 Norte 0 -- -- 90
2019-11-30 05:00:00 10.2 2 Norte 5 Norte 0 -- -- 90
2019-11-30 04:00:00 10.2 2 Norte 5 Norte 0 -- -- 89
2019-11-30 03:00:00 10.5 3 Nordeste 5 Norte 0 -- -- 88
2019-11-30 02:00:00 11.5 4 Norte 9 Norte 0 -- -- 84
2019-11-30 01:00:00 11.7 4 Nordeste 9 Norte 0 -- -- 87
2019-11-30 00:00:00 11.6 4 Nordeste 8 Norte 0 -- -- 90
2019-11-29 23:00:00 11.2 4 Norte 6 Norte 0 -- -- 91
2019-11-29 22:00:00 11.1 3 Norte 5 Norte 0 -- -- 92
2019-11-29 21:00:00 11.7 2 Norte 5 Nordeste 0 -- -- 91
2019-11-29 20:00:00 12.7 3 Norte 4 Norte 0 -- -- 88
2019-11-29 19:00:00 14.1 0 Calma 5 Nordeste 0 -- -- 84
2019-11-29 18:00:00 16.4 3 Sur 6 Sur 0 -- -- 81
2019-11-29 17:00:00 17.9 4 Sur 13 Sur 0 -- -- 74
2019-11-29 16:00:00 18.4 6 Sur 14 Sur 0 -- -- 66
2019-11-29 15:00:00 19.3 8 Sur 13 Sur 0 -- -- 64
2019-11-29 14:00:00 19.5 6 Sudeste 13 Sudoeste 0 -- -- 56
2019-11-29 13:00:00 18.1 9 Sur 13 Sur 0 -- -- 69
2019-11-29 12:00:00 18.2 8 Sur 12 Sur 0 -- -- 63
2019-11-29 11:00:00 18.2 4 Sudoeste 8 Sudoeste 0 -- -- 61
2019-11-29 10:00:00 14.4 3 Norte 7 Norte 0 -- -- 70
2019-11-29 09:00:00 10.8 4 Norte 8 Norte 0 -- -- 82
2019-11-29 08:00:00 10.3 5 Norte 8 Norte 0 -- -- 79
2019-11-29 07:00:00 10.5 4 Nordeste 10 Norte 0 -- -- 77
2019-11-29 06:00:00 10.2 5 Norte 8 Norte 0 -- -- 81
2019-11-29 05:00:00 10.6 4 Norte 9 Norte 0 -- -- 78
2019-11-29 04:00:00 10.6 4 Norte 9 Norte 0 -- -- 79
2019-11-29 03:00:00 10.2 3 Norte 6 Norte 0 -- -- 82
2019-11-29 02:00:00 10.3 3 Norte 6 Norte 0 -- -- 81
2019-11-29 01:00:00 11.6 3 Norte 13 Norte 0 -- -- 74
2019-11-29 00:00:00 11.8 6 Norte 11 Norte 0 -- -- 76
2019-11-28 23:00:00 12.1 3 Norte 15 Nordeste 0 -- -- 77
2019-11-28 22:00:00 13.3 7 Nordeste 17 Nordeste 0 -- -- 76
2019-11-28 21:00:00 12.8 5 Norte 12 Nordeste 0 -- -- 83
2019-11-28 20:00:00 12.8 0 Calma 5 Norte 0 -- -- 81
2019-11-28 19:00:00 14.3 0 Calma 8 Norte 0 -- -- 74
2019-11-28 18:00:00 17.4 3 Norte 5 Sur 0 -- -- 64
2019-11-28 17:00:00 18.2 3 Sur 14 Sudoeste 0 -- -- 63
2019-11-28 16:00:00 19.1 4 Sudoeste 13 Sudoeste 0 -- -- 62
2019-11-28 15:00:00 19.6 9 Sudoeste 13 Sur 0 -- -- 55
2019-11-28 14:00:00 20.6 6 Sur 12 Sudoeste 0 -- -- 45
2019-11-28 13:00:00 20 8 Sur 15 Sur 0 -- -- 57
2019-11-28 12:00:00 19.1 9 Sudoeste 14 Sur 0 -- -- 57
2019-11-28 11:00:00 19.6 5 Sur 11 Este 0 -- -- 54
2019-11-28 10:00:00 15.2 4 Norte 8 Norte 0 -- -- 68
2019-11-28 09:00:00 10.8 6 Norte 9 Norte 0 -- -- 80
2019-11-28 08:00:00 10.6 3 Nordeste 8 Norte 0 -- -- 80
2019-11-28 07:00:00 11.8 3 Nordeste 12 Norte 0 -- -- 72
2019-11-28 06:00:00 12.1 6 Norte 10 Norte 0 -- -- 74
2019-11-28 05:00:00 11.9 5 Norte 9 Este 0 -- -- 76
2019-11-28 04:00:00 13.5 6 Este 17 Este 0 -- -- 74
2019-11-28 03:00:00 12.7 5 Norte 14 Norte 0 -- -- 76
2019-11-28 02:00:00 13.2 3 Noroeste 18 Noroeste 0 -- -- 76
2019-11-28 01:00:00 15.1 8 Norte 23 Oeste 0 -- -- 69
2019-11-28 00:00:00 14.4 8 Norte 14 Noroeste 0 -- -- 76
2019-11-27 23:00:00 15.3 2 Norte 18 Norte 0 -- -- 71
2019-11-27 22:00:00 16.3 12 Noroeste 23 Noroeste 0 -- -- 66
2019-11-27 21:00:00 17.1 15 Noroeste 27 Noroeste 0 -- -- 62
2019-11-27 20:00:00 17.5 15 Noroeste 24 Noroeste 0 -- -- 60
2019-11-27 19:00:00 18.4 15 Noroeste 29 Noroeste 0 -- -- 54
2019-11-27 18:00:00 19.6 18 Noroeste 38 Norte 0 -- -- 50
2019-11-27 17:00:00 21.1 22 Noroeste 43 Noroeste 0 -- -- 47
2019-11-27 16:00:00 22.3 22 Noroeste 46 Noroeste 0 -- -- 46
2019-11-27 15:00:00 22.6 27 Noroeste 47 Norte 0 -- -- 43
2019-11-27 14:00:00 21.7 24 Noroeste 39 Noroeste 0 -- -- 46
2019-11-27 06:00:00 -- -- -- -- -- -- -- -- --
2019-11-27 05:00:00 -- -- -- -- -- -- -- -- --
2019-11-27 04:00:00 -- -- -- -- -- -- -- -- --
2019-11-27 03:00:00 17 7 Noroeste 17 Oeste 0 -- -- 68
2019-11-27 02:00:00 15.4 8 Oeste 15 Oeste 0 -- -- 79
2019-11-27 01:00:00 14.2 3 Norte 6 Norte 0 -- -- 84
2019-11-27 00:00:00 13.2 3 Nordeste 8 Norte 0 -- -- 86
2019-11-26 23:00:00 13.8 2 Norte 7 Norte 0 -- -- 84
2019-11-26 22:00:00 15 5 Norte 14 Noroeste 0 -- -- 78
2019-11-26 21:00:00 14.8 6 Noroeste 8 Noroeste 0 -- -- 85
2019-11-26 20:00:00 15.9 8 Noroeste 13 Noroeste 0 -- -- 81
2019-11-26 19:00:00 16.1 2 Sur 5 Oeste 0 -- -- 85
2019-11-26 18:00:00 17.9 3 Sudoeste 20 Oeste 0 -- -- 80
2019-11-26 17:00:00 19.7 13 Oeste 25 Noroeste 0 -- -- 71
2019-11-26 16:00:00 22.8 15 Noroeste 27 Noroeste 0 -- -- 57
2019-11-26 15:00:00 21.4 5 Sur 12 Sur 0 -- -- 65
2019-11-26 14:00:00 21.7 8 Sur 15 Sudoeste 0 -- -- 58
2019-11-26 13:00:00 23.1 7 Sur 13 Sur 0 -- -- 48
2019-11-26 12:00:00 21.1 4 Sur 9 Sur 0 -- -- 54
2019-11-26 11:00:00 18.8 3 Sudeste 10 Sur 0 -- -- 62
2019-11-26 10:00:00 17.6 4 Sur 8 Este 0 -- -- 67
2019-11-26 09:00:00 12.7 5 Norte 10 Norte 0 -- -- 83
2019-11-26 08:00:00 12.4 5 Nordeste 9 Nordeste 0 -- -- 83
2019-11-26 07:00:00 12.6 5 Norte 9 Norte 0 -- -- 83
2019-11-26 06:00:00 12.9 2 Norte 12 Nordeste 0 -- -- 83
2019-11-26 05:00:00 13.5 5 Norte 11 Nordeste 0 -- -- 80
2019-11-26 04:00:00 14.4 5 Norte 12 Norte 0 -- -- 74
2019-11-26 03:00:00 14.7 5 Nordeste 10 Nordeste 0 -- -- 77
2019-11-26 02:00:00 17.3 5 Noroeste 25 Noroeste 0 -- -- 71
2019-11-26 01:00:00 18.8 18 Noroeste 30 Noroeste 0 -- -- 66
2019-11-26 00:00:00 17.5 12 Noroeste 19 Noroeste 0 -- -- 77
2019-11-25 23:00:00 17.5 9 Noroeste 20 Noroeste 0 -- -- 79
2019-11-25 22:00:00 17.5 12 Norte 17 Noroeste 0 -- -- 80
2019-11-25 21:00:00 18 10 Noroeste 22 Noroeste 0 -- -- 78
2019-11-25 20:00:00 18.4 8 Noroeste 24 Noroeste 0 -- -- 76
2019-11-25 19:00:00 19.1 15 Noroeste 23 Oeste 0 -- -- 72
2019-11-25 18:00:00 19.9 9 Noroeste 33 Oeste 0 -- -- 69
2019-11-25 17:00:00 21.7 10 Noroeste 26 Noroeste 0 -- -- 63
2019-11-25 16:00:00 19.9 12 Sur 29 Sudoeste 0 -- -- 62
2019-11-25 15:00:00 19.4 12 Sudoeste 24 Oeste 0 -- -- 64
2019-11-25 14:00:00 22.1 21 Noroeste 33 Noroeste 0 -- -- 58
2019-11-25 13:00:00 21.5 19 Noroeste 31 Noroeste 0 -- -- 59
2019-11-25 12:00:00 20.8 16 Noroeste 42 Noroeste 0 -- -- 60
2019-11-25 11:00:00 20.6 24 Noroeste 45 Noroeste 0 -- -- 59
2019-11-25 10:00:00 19.5 24 Noroeste 37 Noroeste 0 -- -- 61
2019-11-25 09:00:00 16.9 15 Noroeste -- -- -- -- -- 67
2019-11-25 08:00:00 -- 22 Noroeste 57 Norte -- -- -- --
2019-11-25 07:00:00 16.6 21 Noroeste 40 Noroeste 0 -- -- 64
2019-11-25 06:00:00 14.3 5 Sudeste 15 Nordeste 0 -- -- 69
2019-11-25 05:00:00 11.8 8 Norte 15 Norte 0 -- -- 76
2019-11-25 04:00:00 11.3 5 Nordeste 12 Norte 0 -- -- 73
2019-11-25 03:00:00 10.8 6 Norte 12 Nordeste 0 -- -- 75
2019-11-25 02:00:00 11.3 5 Norte 12 Norte 0 -- -- 73
2019-11-25 01:00:00 11.8 7 Norte 15 Noroeste 0 -- -- 70
2019-11-25 00:00:00 12.1 5 Nordeste 13 Norte 0 -- -- 68
2019-11-24 23:00:00 11.7 5 Nordeste 10 Nordeste 0 -- -- 71
2019-11-24 22:00:00 12 4 Norte 11 Nordeste 0 -- -- 68
2019-11-24 21:00:00 12.8 0 Calma 15 Oeste 0 -- -- 64
2019-11-24 20:00:00 14.7 13 Norte 36 Noroeste 0 -- -- 56
2019-11-24 19:00:00 15.2 24 Noroeste 48 Noroeste 0 -- -- 54
2019-11-24 18:00:00 16.2 17 Noroeste 30 Noroeste 0 -- -- 48
2019-11-24 17:00:00 18.3 13 Noroeste 34 Noroeste 0 -- -- 40
2019-11-24 16:00:00 19 16 Noroeste 38 Noroeste 0 -- -- 39
2019-11-24 15:00:00 18.6 19 Oeste 38 Noroeste 0 -- -- 42
2019-11-24 14:00:00 18.1 25 Noroeste 42 Noroeste 0 -- -- 44
2019-11-24 13:00:00 17.1 26 Noroeste 44 Noroeste 0 -- -- 47
2019-11-24 12:00:00 17.1 24 Noroeste 42 Oeste 0 -- -- 45
2019-11-24 11:00:00 16.2 21 Noroeste 36 Noroeste 0 -- -- 48
2019-11-24 10:00:00 14.8 22 Noroeste 42 Noroeste 0 -- -- 53
2019-11-24 09:00:00 12.1 15 Norte -- -- -- -- -- 63
2019-11-24 08:00:00 -- -- -- -- -- -- -- -- --
2019-11-24 07:00:00 -- -- -- -- -- -- -- -- --
2019-11-24 06:00:00 -- -- -- -- -- -- -- -- --
2019-11-24 05:00:00 -- -- -- -- -- -- -- -- --
2019-11-24 04:00:00 -- -- -- -- -- -- -- -- --
2019-11-24 03:00:00 -- -- -- -- -- -- -- -- --
2019-11-24 02:00:00 -- -- -- -- -- -- -- -- --
2019-11-24 01:00:00 -- -- -- -- -- -- -- -- --
2019-11-24 00:00:00 -- -- -- -- -- -- -- -- --
2019-11-23 23:00:00 13.6 10 Oeste 23 Noroeste 0 -- -- 58
2019-11-23 22:00:00 14.3 17 Noroeste 37 Noroeste 0 -- -- 56
2019-11-23 21:00:00 14.8 8 Oeste 36 Norte 0 -- -- 55
2019-11-23 20:00:00 14.4 16 Noroeste 24 Noroeste 0 -- -- 58
2019-11-23 19:00:00 14.9 17 Noroeste 29 Noroeste 0 -- -- 57
2019-11-23 18:00:00 15.8 8 Noroeste 42 Noroeste 0 -- -- 54
2019-11-23 17:00:00 17.1 19 Noroeste 42 Noroeste 0 -- -- 50
2019-11-23 16:00:00 17.6 29 Noroeste 50 Noroeste 0 -- -- 47
2019-11-23 15:00:00 16.8 32 Noroeste 55 Noroeste 0 -- -- 50
2019-11-23 14:00:00 17 29 Noroeste 48 Noroeste 0 -- -- 50
2019-11-23 13:00:00 18.2 30 Noroeste 45 Noroeste 0 -- -- 49
2019-11-23 12:00:00 17.8 24 Noroeste 47 Noroeste 0 -- -- 50
2019-11-23 11:00:00 17 25 Noroeste 38 Noroeste 0 -- -- 55
2019-11-23 10:00:00 16.6 18 Noroeste 29 Oeste -- -- -- 59
2019-11-23 09:00:00 -- -- -- -- -- -- -- -- --
2019-11-23 08:00:00 -- -- -- -- -- -- -- -- --
2019-11-23 07:00:00 -- -- -- -- -- -- -- -- --
2019-11-23 06:00:00 -- -- -- -- -- -- -- -- --
2019-11-23 05:00:00 -- -- -- -- -- -- -- -- --
2019-11-23 04:00:00 -- -- -- -- -- -- -- -- --
2019-11-23 03:00:00 -- -- -- -- -- -- -- -- --
2019-11-23 02:00:00 -- -- -- -- -- -- -- -- --
2019-11-23 01:00:00 -- -- -- -- -- -- -- -- --
2019-11-23 00:00:00 -- -- -- -- -- -- -- -- --
2019-11-22 23:00:00 -- -- -- -- -- -- -- -- --
2019-11-22 22:00:00 -- -- -- -- -- -- -- -- --
2019-11-22 21:00:00 -- -- -- -- -- -- -- -- --
2019-11-22 20:00:00 -- -- -- -- -- -- -- -- --
2019-11-22 19:00:00 -- -- -- -- -- -- -- -- --
2019-11-22 18:00:00 -- -- -- -- -- -- -- -- --
2019-11-22 17:00:00 -- -- -- -- -- -- -- -- --
2019-11-22 16:00:00 -- -- -- -- -- -- -- -- --
2019-11-22 15:00:00 -- -- -- -- -- -- -- -- --
2019-11-22 14:00:00 -- -- -- -- -- -- -- -- --
2019-11-22 13:00:00 -- -- -- -- -- -- -- -- --
2019-11-22 12:00:00 -- -- -- -- -- -- -- -- --
2019-11-22 11:00:00 -- -- -- -- -- -- -- -- --
2019-11-22 10:00:00 -- -- -- -- -- -- -- -- --
2019-11-22 09:00:00 -- -- -- -- -- -- -- -- --
2019-11-22 08:00:00 -- -- -- -- -- -- -- -- --
2019-11-22 07:00:00 -- -- -- -- -- -- -- -- --
2019-11-22 06:00:00 -- -- -- -- -- -- -- -- --
2019-11-22 05:00:00 -- -- -- -- -- -- -- -- --
2019-11-22 04:00:00 -- -- -- -- -- -- -- -- --
2019-11-22 03:00:00 -- -- -- -- -- -- -- -- --
2019-11-22 02:00:00 -- -- -- -- -- -- -- -- --
2019-11-22 01:00:00 -- -- -- -- -- -- -- -- --
2019-11-22 00:00:00 -- -- -- -- -- -- -- -- --
2019-11-21 23:00:00 -- -- -- -- -- -- -- -- --
2019-11-21 22:00:00 -- -- -- -- -- -- -- -- --
2019-11-21 21:00:00 -- -- -- -- -- -- -- -- --
2019-11-21 20:00:00 -- -- -- -- -- -- -- -- --
2019-11-21 19:00:00 -- -- -- -- -- -- -- -- --
2019-11-21 18:00:00 -- -- -- -- -- -- -- -- --
2019-11-21 17:00:00 -- -- -- -- -- -- -- -- --
2019-11-21 16:00:00 -- -- -- -- -- -- -- -- --
2019-11-21 15:00:00 -- -- -- -- -- -- -- -- --
2019-11-21 14:00:00 -- -- -- -- -- -- -- -- --
2019-11-21 13:00:00 -- -- -- -- -- -- -- -- --
2019-11-21 12:00:00 -- -- -- -- -- -- -- -- --
2019-11-21 11:00:00 -- -- -- -- -- -- -- -- --
2019-11-21 10:00:00 -- -- -- -- -- -- -- -- --
2019-11-21 09:00:00 -- -- -- -- -- -- -- -- --
2019-11-21 08:00:00 -- -- -- -- -- -- -- -- --
2019-11-21 07:00:00 -- -- -- -- -- -- -- -- --
2019-11-21 06:00:00 -- -- -- -- -- -- -- -- --
2019-11-21 05:00:00 -- -- -- -- -- -- -- -- --
2019-11-21 04:00:00 -- -- -- -- -- -- -- -- --
2019-11-21 03:00:00 10.6 3 Norte 7 Noroeste 0 -- -- 93
2019-11-21 02:00:00 10.2 3 Nordeste 8 Norte 0 -- -- 94
2019-11-21 01:00:00 10 3 Norte 6 Norte 0 -- -- 93
2019-11-21 00:00:00 9.8 4 Norte 6 Norte 0 -- -- 93
2019-11-20 23:00:00 10.6 0 Calma 4 Norte 0 -- -- 91
2019-11-20 22:00:00 11.5 3 Norte 5 Norte 0 -- -- 90
2019-11-20 21:00:00 12.2 0 Calma 5 Nordeste 0 -- -- 89
2019-11-20 20:00:00 12.8 0 Calma 4 Sudoeste 0 -- -- 89
2019-11-20 19:00:00 12.7 0 Calma 5 Nordeste 0 -- -- 87
2019-11-20 18:00:00 13.5 3 Nordeste 8 Sudoeste 0 -- -- 85
2019-11-20 17:00:00 13.7 0 Calma 10 Oeste 0 -- -- 84
2019-11-20 16:00:00 13.7 2 Oeste 8 Norte 0 -- -- 83
2019-11-20 15:00:00 12.4 2 Noroeste 6 Norte 0 -- -- 89
2019-11-20 14:00:00 12.4 0 Calma 12 Oeste 1 -- -- 86
2019-11-20 13:00:00 13.8 4 Sudoeste 13 Sudoeste 0.2 -- -- 77
2019-11-20 12:00:00 15.4 6 Sudoeste 11 Sudoeste 0 -- -- 61
2019-11-20 11:00:00 17.2 4 Sur 12 Sur 0 -- -- 54
2019-11-20 10:00:00 14 4 Norte 7 Norte 0 -- -- 62
2019-11-20 09:00:00 9.5 4 Norte 8 Norte 0 -- -- 73
2019-11-20 08:00:00 8.8 4 Norte 7 Norte 0 -- -- 72
2019-11-20 07:00:00 8.6 4 Norte 7 Norte 0 -- -- 72
2019-11-20 06:00:00 9 3 Norte 11 Norte 0 -- -- 71
2019-11-20 05:00:00 9.5 4 Norte 9 Norte 0 -- -- 70
2019-11-20 04:00:00 10.8 4 Norte 6 Norte 0 -- -- 70
2019-11-20 03:00:00 11 5 Nordeste 7 Nordeste 0 -- -- 66
2019-11-20 02:00:00 10.8 2 Norte 9 Sudeste 0 -- -- 65
2019-11-20 01:00:00 11.4 4 Sudeste 8 Sudeste 0 -- -- 60
2019-11-20 00:00:00 11.3 3 Nordeste 6 Nordeste 0 -- -- 62
2019-11-19 23:00:00 11.9 3 Norte 11 Norte 0 -- -- 60
2019-11-19 22:00:00 11.5 5 Norte 9 Norte 0 -- -- 62
2019-11-19 21:00:00 11.5 3 Norte 7 Norte 0 -- -- 63
2019-11-19 20:00:00 11.5 4 Norte 9 Norte 0 -- -- 61
2019-11-19 19:00:00 11.1 3 Norte 6 Norte 0 -- -- 65
2019-11-19 18:00:00 13.8 0 Calma 7 Sur 0 -- -- 73
2019-11-19 17:00:00 15 6 Sur 14 Sur 0 -- -- 67
2019-11-19 16:00:00 16.2 8 Sur 15 Sur 0 -- -- 57
2019-11-19 15:00:00 17.2 9 Sur 15 Sudoeste 0 -- -- 52
2019-11-19 14:00:00 17.3 6 Sur 14 Sur 0 -- -- 45
2019-11-19 13:00:00 16.8 8 Sur 13 Sudoeste 0 -- -- 48
2019-11-19 12:00:00 17.2 6 Sudoeste 16 Sudoeste 0 -- -- 52
2019-11-19 11:00:00 16.5 3 Oeste 8 Oeste 0 -- -- 41
2019-11-19 10:00:00 13.6 0 Calma 9 Norte 0 -- -- 49
2019-11-19 09:00:00 10.2 5 Noroeste 9 Noroeste 0 -- -- 58
2019-11-19 08:00:00 9.5 5 Norte 9 Norte 0 -- -- 57
2019-11-19 07:00:00 11 8 Norte 15 Norte 0 -- -- 53
2019-11-19 06:00:00 10.5 7 Norte 12 Norte 0 -- -- 54
2019-11-19 05:00:00 9.8 3 Norte 8 Norte 0 -- -- 55
2019-11-19 04:00:00 9.7 2 Norte 11 Nordeste 0 -- -- 55
2019-11-19 03:00:00 9.2 3 Norte 9 Norte 0 -- -- 57
2019-11-19 02:00:00 9.2 4 Norte 7 Nordeste 0 -- -- 54
2019-11-19 01:00:00 10.2 4 Norte 10 Norte 0 -- -- 51
2019-11-19 00:00:00 10.5 3 Nordeste 10 Norte 0 -- -- 52
2019-11-18 23:00:00 11.5 3 Noroeste 8 Noroeste 0 -- -- 49
2019-11-18 22:00:00 13.9 4 Noroeste 22 Norte 0 -- -- 42
2019-11-18 21:00:00 11.3 3 Norte 12 Este 0 -- -- 53
2019-11-18 20:00:00 12.5 3 Norte 9 Nordeste 0 -- -- 52
2019-11-18 19:00:00 15.3 8 Norte 18 Nordeste 0 -- -- 44
2019-11-18 18:00:00 17.3 3 Norte 22 Norte 0 -- -- 40
2019-11-18 17:00:00 19.6 7 Norte 23 Norte 0 -- -- 36
2019-11-18 16:00:00 20.4 12 Norte 26 Norte 0 -- -- 34
2019-11-18 15:00:00 20 15 Norte 28 Norte 0 -- -- 34
2019-11-18 14:00:00 19.5 10 Nordeste 27 Este 0 -- -- 34
2019-11-18 13:00:00 19.2 13 Norte 26 Nordeste 0 -- -- 36
2019-11-18 12:00:00 17.6 10 Norte 39 Oeste 0 -- -- 41
2019-11-18 11:00:00 15.7 22 Noroeste 40 Noroeste 0 -- -- 50
2019-11-18 10:00:00 14.8 18 Noroeste 37 Noroeste 0 -- -- 50
2019-11-18 09:00:00 13.4 21 Noroeste 36 Norte 0 -- -- 58
2019-11-18 08:00:00 13.7 22 Noroeste 35 Noroeste 0 -- -- 61
2019-11-18 07:00:00 13.7 17 Noroeste 33 Noroeste 0 -- -- 73
2019-11-18 06:00:00 14 20 Noroeste 39 Noroeste 0 -- -- 84
2019-11-18 05:00:00 13.1 5 Norte 10 Nordeste 0 -- -- 85
2019-11-18 04:00:00 12.7 0 Calma 8 Este 0 -- -- 85
2019-11-18 03:00:00 13.1 5 Norte 10 Norte 0 -- -- 84
2019-11-18 02:00:00 13.1 2 Sudeste 12 Norte 0 -- -- 84
2019-11-18 01:00:00 12.5 2 Sudoeste 6 Noroeste 0 -- -- 86
2019-11-18 00:00:00 13.1 0 Calma 8 Norte 0 -- -- 86
2019-11-17 23:00:00 13.4 2 Nordeste 5 Norte 0 -- -- 87
2019-11-17 22:00:00 13.6 0 Calma 8 Oeste 0 -- -- 87
2019-11-17 21:00:00 13.4 0 Calma 8 Norte 0 -- -- 85
2019-11-17 20:00:00 14 4 Norte 19 Oeste 0 -- -- 83
2019-11-17 19:00:00 14.4 4 Noroeste 24 Oeste 0 -- -- 81
2019-11-17 18:00:00 14.5 14 Oeste 37 Sudoeste 0 -- -- 81
2019-11-17 17:00:00 15.2 15 Sudoeste 27 Oeste 0 -- -- 71
2019-11-17 16:00:00 15 13 Oeste 25 Sudoeste 0 -- -- 55
2019-11-17 15:00:00 17.3 12 Noroeste 24 Oeste 0 -- -- 50
2019-11-17 14:00:00 17.9 13 Noroeste 37 Noroeste 0 -- -- 48
2019-11-17 13:00:00 17.2 27 Norte 37 Norte 0 -- -- 51
2019-11-17 12:00:00 16.7 23 Noroeste 31 Noroeste 0 -- -- 47
2019-11-17 11:00:00 16.6 12 Oeste 27 Noroeste 0 -- -- 41
2019-11-17 10:00:00 14 9 Oeste 28 Oeste 0 -- -- 43
2019-11-17 09:00:00 12.3 12 Oeste 23 Oeste 0 -- -- 47
2019-11-17 08:00:00 11.2 9 Oeste 19 Oeste 0 -- -- 50
2019-11-17 07:00:00 7.5 6 Noroeste 12 Noroeste 0 -- -- 63
2019-11-17 06:00:00 6.8 3 Norte 6 Norte 0 -- -- 64
2019-11-17 05:00:00 8.2 3 Norte 18 Norte 0 -- -- 56
2019-11-17 04:00:00 9.8 13 Norte 18 Norte 0 -- -- 50
2019-11-17 03:00:00 9.7 4 Norte 17 Norte 0 -- -- 48
2019-11-17 02:00:00 10.6 10 Noroeste 33 Noroeste 0 -- -- 48
2019-11-17 01:00:00 12 20 Noroeste 29 Noroeste 0 -- -- 44
2019-11-17 00:00:00 7.9 4 Norte 11 Norte 0 -- -- 54
2019-11-16 23:00:00 8.1 2 Este 9 Norte 0 -- -- 52
2019-11-16 22:00:00 8.5 4 Norte 10 Noroeste 0 -- -- 52
2019-11-16 21:00:00 9.8 3 Norte 13 Norte 0 -- -- 50
2019-11-16 20:00:00 11.9 8 Norte 29 Noroeste 0 -- -- 45
2019-11-16 19:00:00 13.1 19 Noroeste 35 Oeste 0 -- -- 41
2019-11-16 18:00:00 14.9 18 Noroeste 36 Noroeste 0 -- -- 39
2019-11-16 17:00:00 17.5 24 Noroeste 43 Noroeste 0 -- -- 28
2019-11-16 16:00:00 18.4 21 Noroeste 38 Noroeste 0 -- -- 26
2019-11-16 15:00:00 18.7 17 Noroeste 33 Noroeste 0 -- -- 24
2019-11-16 14:00:00 17.5 18 Sudoeste 33 Sudoeste 0 -- -- 37
2019-11-16 13:00:00 17.5 10 Oeste 21 Sudoeste 0 -- -- 25
2019-11-16 12:00:00 16.5 7 Noroeste 18 Oeste 0 -- -- 29
2019-11-16 11:00:00 15.2 8 Noroeste 18 Oeste 0 -- -- 32
2019-11-16 10:00:00 13.7 3 Sur 8 Norte 0 -- -- 37
2019-11-16 09:00:00 6.6 0 Calma 12 Norte 0 -- -- 63
2019-11-16 08:00:00 7 5 Nordeste 12 Norte 0 -- -- 59
2019-11-16 07:00:00 7.1 6 Norte 13 Nordeste 0 -- -- 62
2019-11-16 06:00:00 6.9 4 Nordeste 13 Norte 0 -- -- 64
2019-11-16 05:00:00 6 5 Norte 9 Norte 0 -- -- 68
2019-11-16 04:00:00 6.6 2 Norte 9 Nordeste 0 -- -- 66
2019-11-16 03:00:00 8.1 5 Norte 20 Noroeste 0 -- -- 61
2019-11-16 02:00:00 10.2 14 Noroeste 25 Noroeste 0 -- -- 54
2019-11-16 01:00:00 9.7 12 Noroeste 29 Noroeste 0 -- -- 56
2019-11-16 00:00:00 10.4 20 Noroeste 32 Noroeste 0 -- -- 53
2019-11-15 23:00:00 10.7 21 Noroeste 31 Noroeste 0 -- -- 51
2019-11-15 22:00:00 10.6 16 Norte 35 Noroeste 0 -- -- 50
2019-11-15 21:00:00 10.4 18 Noroeste 34 Noroeste 0 -- -- 53
2019-11-15 20:00:00 10.5 14 Noroeste 32 Oeste 0 -- -- 55
2019-11-15 19:00:00 10.5 9 Noroeste 30 Noroeste 0 -- -- 56
2019-11-15 18:00:00 11.1 14 Noroeste 44 Norte 0 -- -- 51
2019-11-15 17:00:00 14.1 21 Noroeste 42 Noroeste 0 -- -- 36
2019-11-15 16:00:00 14.7 23 Noroeste 40 Noroeste 0 -- -- 33
2019-11-15 15:00:00 14.2 25 Noroeste 43 Noroeste 0 -- -- 37
2019-11-15 14:00:00 15.6 21 Noroeste 33 Noroeste 0 -- -- 36
2019-11-15 13:00:00 15.1 21 Noroeste 40 Noroeste 0 -- -- 39
2019-11-15 12:00:00 13 22 Noroeste 42 Oeste 0 -- -- 41
2019-11-15 11:00:00 12.4 18 Noroeste 33 Noroeste 0 -- -- 44
2019-11-15 10:00:00 11.7 22 Noroeste 35 Noroeste 0 -- -- 47
2019-11-15 09:00:00 10.6 20 Noroeste -- -- -- -- -- 54
2019-11-15 08:00:00 -- -- -- -- -- -- -- -- --
2019-11-15 07:00:00 -- -- -- -- -- -- -- -- --
2019-11-15 06:00:00 -- -- -- -- -- -- -- -- --
2019-11-15 05:00:00 -- -- -- -- -- -- -- -- --
2019-11-15 04:00:00 11.5 21 Noroeste 37 Noroeste 0 -- -- 56
2019-11-15 03:00:00 11.9 20 Noroeste 44 Noroeste 0 -- -- 55
2019-11-15 02:00:00 12 21 Noroeste 37 Norte 0 -- -- 56
2019-11-15 01:00:00 12.1 18 Noroeste 28 Noroeste 0 -- -- 57
2019-11-15 00:00:00 12.1 13 Noroeste 38 Noroeste 0 -- -- 57
2019-11-14 23:00:00 13.3 27 Noroeste 55 Noroeste 0 -- -- 53
2019-11-14 22:00:00 13 19 Noroeste 46 Noroeste 0 -- -- 55
2019-11-14 21:00:00 13.5 32 Noroeste 58 Noroeste 0 -- -- 52
2019-11-14 20:00:00 13.7 32 Noroeste 59 Noroeste 0 -- -- 49
2019-11-14 19:00:00 14 32 Noroeste 54 Noroeste 0 -- -- 49
2019-11-14 18:00:00 14.6 35 Noroeste 64 Noroeste 0 -- -- 47
2019-11-14 17:00:00 15.1 24 Noroeste 49 Norte 0 -- -- 49
2019-11-14 16:00:00 15.1 33 Noroeste 49 Noroeste 0 -- -- 51
2019-11-14 15:00:00 15 26 Noroeste 45 Noroeste 0 -- -- 64
2019-11-14 14:00:00 15.1 9 Oeste 35 Noroeste 0 -- -- 74
2019-11-14 13:00:00 16.9 19 Noroeste 37 Noroeste 0 -- -- 58
2019-11-14 12:00:00 17.1 25 Noroeste 48 Noroeste 0 -- -- 54
2019-11-14 11:00:00 18 25 Noroeste 48 Noroeste 0 -- -- 51
2019-11-14 10:00:00 16.9 30 Noroeste 49 Noroeste 0 -- -- 51
2019-11-14 09:00:00 14.7 18 Noroeste 45 Noroeste 0 -- -- 56
2019-11-14 08:00:00 14.7 27 Noroeste 55 Noroeste 0 -- -- 56
2019-11-14 07:00:00 15.2 22 Noroeste 31 Noroeste 0 -- -- 64
2019-11-14 06:00:00 13.4 9 Noroeste 13 Noroeste 0 -- -- 73
2019-11-14 05:00:00 14.9 9 Noroeste 20 Noroeste 0 -- -- 66
2019-11-14 04:00:00 15.7 11 Noroeste 19 Oeste 0 -- -- 65
2019-11-14 03:00:00 16.5 12 Noroeste 21 Noroeste 0 -- -- 63
2019-11-14 02:00:00 16.8 10 Noroeste 24 Oeste 0 -- -- 62
2019-11-14 01:00:00 17.8 19 Noroeste 36 Noroeste 0 -- -- 60
2019-11-14 00:00:00 17.9 9 Oeste 26 Oeste 0 -- -- 61
2019-11-13 23:00:00 17.7 7 Sudoeste 32 Sudoeste 0 -- -- 63
2019-11-13 22:00:00 18.2 15 Oeste 26 Sudoeste 0 -- -- 61
2019-11-13 21:00:00 18.3 10 Noroeste 27 Noroeste 0 -- -- 57
2019-11-13 20:00:00 18.9 15 Noroeste 27 Oeste 0 -- -- 53
2019-11-13 19:00:00 19.1 12 Noroeste 44 Noroeste 0 -- -- 54
2019-11-13 18:00:00 20 24 Noroeste 46 Oeste 0 -- -- 52
2019-11-13 17:00:00 21.6 24 Noroeste 46 Noroeste 0 -- -- 49
2019-11-13 16:00:00 22.2 30 Noroeste 46 Noroeste 0 -- -- 53
2019-11-13 15:00:00 22.2 25 Noroeste 43 Oeste 0 -- -- 53
2019-11-13 14:00:00 20.7 30 Noroeste 51 Noroeste 0 -- -- 60
2019-11-13 13:00:00 19.4 23 Noroeste 51 Norte 0 -- -- 61
2019-11-13 12:00:00 18.8 23 Noroeste 50 Noroeste 0 -- -- 61
2019-11-13 11:00:00 19.1 29 Noroeste 53 Noroeste 0 -- -- 59
2019-11-13 10:00:00 18.5 26 Noroeste 48 Noroeste 0 -- -- 59
2019-11-13 09:00:00 17.4 25 Noroeste 40 Noroeste 0 -- -- 59
2019-11-13 08:00:00 16.1 24 Noroeste 42 Noroeste 0 -- -- 63
2019-11-13 07:00:00 16 24 Noroeste 43 Noroeste 0 -- -- 62
2019-11-13 06:00:00 15.9 22 Noroeste 38 Noroeste 0 -- -- 59
2019-11-13 05:00:00 16 17 Noroeste 41 Noroeste 0 -- -- 57
2019-11-13 04:00:00 16.1 25 Noroeste 46 Noroeste 0 -- -- 57
2019-11-13 03:00:00 16.5 25 Noroeste 48 Noroeste 0 -- -- 55
2019-11-13 02:00:00 16.7 25 Noroeste 45 Noroeste 0 -- -- 50
2019-11-13 01:00:00 15.3 11 Noroeste 23 Sudoeste 0 -- -- 48
2019-11-13 00:00:00 16.7 8 Sudoeste 31 Noroeste 0 -- -- 42
2019-11-12 23:00:00 16.8 19 Noroeste 36 Noroeste 0 -- -- 42
2019-11-12 22:00:00 16.8 18 Noroeste 37 Noroeste 0 -- -- 46
2019-11-12 21:00:00 17 21 Noroeste 44 Noroeste 0 -- -- 48
2019-11-12 20:00:00 17.1 21 Noroeste 36 Noroeste 0 -- -- 48
2019-11-12 19:00:00 17.3 21 Noroeste 40 Noroeste 0 -- -- 49
2019-11-12 18:00:00 18.7 15 Noroeste 38 Noroeste 0 -- -- 45
2019-11-12 17:00:00 20.5 21 Noroeste 44 Noroeste 0 -- -- 40
2019-11-12 16:00:00 21.3 23 Noroeste 46 Noroeste 0 -- -- 38
2019-11-12 15:00:00 23.3 18 Noroeste 44 Noroeste 0 -- -- 27
2019-11-12 14:00:00 24.1 14 Norte 45 Noroeste 0 -- -- 25
2019-11-12 13:00:00 23.6 13 Noroeste 36 Oeste 0 -- -- 26
2019-11-12 12:00:00 22.2 25 Noroeste 38 Noroeste 0 -- -- 32
2019-11-12 11:00:00 21 15 Noroeste 28 Oeste 0 -- -- 36
2019-11-12 10:00:00 18.3 17 Noroeste 36 Noroeste 0 -- -- 44
2019-11-12 09:00:00 16 24 Noroeste 37 Noroeste -- -- -- 53
2019-11-12 08:00:00 -- -- -- -- -- -- -- -- --
2019-11-12 07:00:00 -- -- -- -- -- -- -- -- --
2019-11-12 06:00:00 -- -- -- -- -- -- -- -- --
2019-11-12 05:00:00 -- -- -- -- -- -- -- -- --
2019-11-12 04:00:00 -- -- -- -- -- -- -- -- --
2019-11-12 03:00:00 -- -- -- -- -- -- -- -- --
2019-11-12 02:00:00 -- -- -- -- -- -- -- -- --
2019-11-12 01:00:00 -- -- -- -- -- -- -- -- --
2019-11-12 00:00:00 16.8 23 Norte 35 Norte 0 -- -- 61
2019-11-11 23:00:00 16.1 14 Norte 26 Norte 0 -- -- 66
2019-11-11 22:00:00 15.8 6 Norte 21 Nordeste 0 -- -- 66
2019-11-11 21:00:00 15.5 5 Nordeste 23 Noroeste 0 -- -- 68
2019-11-11 20:00:00 15.8 14 Noroeste 36 Noroeste 0 -- -- 67
2019-11-11 19:00:00 15.8 19 Noroeste 31 Noroeste 0 -- -- 67
2019-11-11 18:00:00 16.2 22 Noroeste 42 Noroeste 0 -- -- 65
2019-11-11 17:00:00 17.2 26 Noroeste 43 Noroeste 0 -- -- 59
2019-11-11 16:00:00 17.4 24 Noroeste 44 Oeste 0 -- -- 57
2019-11-11 15:00:00 17.9 28 Noroeste 49 Noroeste 0 -- -- 53
2019-11-11 14:00:00 18.6 26 Noroeste 47 Noroeste 0 -- -- 45
2019-11-11 13:00:00 17.9 18 Noroeste 35 Oeste 0 -- -- 46
2019-11-11 12:00:00 16.4 15 Oeste 32 Oeste 0 -- -- 49
2019-11-11 11:00:00 14.8 11 Noroeste 24 Oeste 0 -- -- 54
2019-11-11 10:00:00 14.4 6 Noroeste 19 Noroeste 0 -- -- 55
2019-11-11 09:00:00 13.4 14 Noroeste 23 Noroeste 0 -- -- 55
2019-11-11 08:00:00 11.9 9 Noroeste 14 Noroeste 0 -- -- 59
2019-11-11 07:00:00 12 5 Noroeste 13 Noroeste 0 -- -- 56
2019-11-11 06:00:00 12.6 0 Calma 26 Norte 0 -- -- 54
2019-11-11 05:00:00 13.2 15 Noroeste 24 Norte 0 -- -- 53
2019-11-11 04:00:00 13.7 15 Noroeste 31 Noroeste 0 -- -- 52
2019-11-11 03:00:00 14 15 Noroeste 28 Noroeste 0 -- -- 52
2019-11-11 02:00:00 13.9 10 Noroeste 25 Noroeste 0 -- -- 54
2019-11-11 01:00:00 14.1 15 Noroeste 32 Noroeste 0 -- -- 53
2019-11-11 00:00:00 14.5 18 Noroeste 28 Noroeste 0 -- -- 51